Latest Weather Observations for Tuggeranong

IDN60801

Issued at 12:04 pm EDT Friday 19 December 2014 (issued every 30 minutes, with the page automatically refreshed every 10 minutes)

About weather observations | Map of weather stations | Latest weather observations for NSW | Other Formats
Station Details ID: 070339 Name: TUGGERANONG (ISABELLA PLAINS) AWS Lat: -35.42 Lon: 149.09 Height: 586.7 m
Data from the previous 72 hours. | See also: Recent months at Tuggeranong
Date/Time
EDT
Temp
°C
App
Temp
°C
Dew
Point
Rel
Hum
%
Delta-T
°C
Wind Press
QNH
hPa
Press
MSL
hPa
Rain
since 9 am
mm
Dir
 
Spd
km/h
Gust
km/h
Spd
kts
Gust
kts
19/12:00pm 20.3 17.6 3.9 34 8.1 W 7 15 4 8 1012.9 1010.5 0.0
19/11:30am 20.1 16.8 4.6 36 7.7 SSW 11 17 6 9 1013.0 1010.6 0.0
19/11:00am 19.0 16.4 4.0 37 7.4 ENE 7 13 4 7 1013.3 1010.9 0.0
19/10:30am 17.9 14.9 4.1 40 6.7 ESE 9 15 5 8 1013.3 1010.9 0.0
19/10:00am 18.3 15.6 5.5 43 6.4 E 9 15 5 8 1013.3 1010.9 0.0
19/09:30am 17.2 14.5 5.5 46 5.8 SSW 9 15 5 8 1013.2 1010.8 0.0
19/09:00am 16.4 13.1 6.2 51 5.1 SSE 13 19 7 10 1013.1 1010.7 0.0
19/08:30am 15.9 12.6 6.3 53 4.8 SSE 13 22 7 12 1013.1 1010.7 0.0
19/08:00am 15.1 12.2 6.7 57 4.2 S 11 19 6 10 1012.9 1010.5 0.0
19/07:30am 14.9 12.9 7.0 59 4.0 SSE 7 13 4 7 1012.5 1010.1 0.0
19/07:00am 13.2 11.8 7.2 67 3.0 WSW 4 9 2 5 1012.1 1009.7 0.0
19/06:30am 11.5 10.9 7.2 75 2.1 CALM 0 4 0 2 1011.9 1009.6 0.0
19/06:00am 10.9 9.1 7.2 78 1.8 WSW 6 9 3 5 1011.6 1009.2 0.0
19/05:30am 11.3 8.8 3.8 60 3.5 SE 6 11 3 6 1011.1 1008.7 0.0
19/05:00am 12.7 10.4 2.6 50 4.6 E 4 9 2 5 1010.5 1008.1 0.0
19/04:30am 14.3 11.3 2.2 44 5.5 WSW 7 13 4 7 1010.0 1007.6 0.0
19/04:00am 13.6 10.7 2.8 48 5.0 W 7 11 4 6 1009.8 1007.4 0.0
19/03:30am 13.9 11.2 2.8 47 5.1 W 6 17 3 9 1009.7 1007.3 0.0
19/02:30am 16.6 13.7 2.6 39 6.5 SW 7 17 4 9 1009.5 1007.1 0.0
19/02:00am 16.8 12.0 2.8 39 6.6 SW 17 28 9 15 1009.3 1006.9 0.0
19/01:30am 16.4 13.5 2.4 39 6.5 S 7 9 4 5 1009.5 1007.1 0.0
19/01:00am 18.2 14.1 2.1 34 7.6 WSW 13 20 7 11 1009.3 1006.9 0.0
19/12:30am 18.8 13.5 3.0 35 7.6 WSW 20 41 11 22 1009.0 1006.6 0.0
19/12:00am 18.3 15.5 3.0 36 7.3 SW 7 11 4 6 1009.2 1006.8 0.0
 
Date/Time
EDT
Temp
°C
App
Temp
°C
Dew
Point
Rel
Hum
%
Delta-T
°C
Wind Press
QNH
hPa
Press
MSL
hPa
Rain
since 9 am
mm
Dir
 
Spd
km/h
Gust
km/h
Spd
kts
Gust
kts
18/11:30pm 19.0 15.8 3.2 35 7.6 W 9 15 5 8 1009.1 1006.7 0.0
18/11:00pm 20.4 16.4 2.7 31 8.6 W 13 20 7 11 1009.0 1006.6 0.0
18/10:30pm 20.2 16.5 2.5 31 8.5 WSW 11 17 6 9 1008.8 1006.3 0.0
18/10:00pm 20.6 17.6 2.0 29 8.9 W 7 13 4 7 1008.5 1006.0 0.0
18/09:30pm 20.7 17.3 1.6 28 9.0 WNW 9 19 5 10 1008.2 1005.8 0.0
18/09:00pm 21.2 18.0 1.0 26 9.5 W 7 9 4 5 1008.0 1005.6 0.0
18/08:30pm 22.6 18.3 1.0 24 10.3 W 13 22 7 12 1007.7 1005.3 0.0
18/08:00pm 23.4 18.6 0.5 22 10.9 WNW 15 22 8 12 1007.3 1004.8 0.0
18/07:30pm 24.7 19.2 0.3 20 11.6 WNW 19 28 10 15 1006.9 1004.4 0.0
18/07:00pm 25.2 19.1 0.7 20 11.8 W 22 37 12 20 1006.8 1004.3 0.0
18/06:30pm 25.6 20.1 1.7 21 11.7 W 20 32 11 17 1006.3 1003.9 0.0
18/06:00pm 25.5 19.2 1.6 21 11.7 WNW 24 37 13 20 1006.3 1003.9 0.0
18/05:30pm 26.0 21.2 4.5 25 11.1 WNW 19 28 10 15 1006.2 1003.8 0.0
18/05:00pm 25.5 19.5 3.5 24 11.2 W 24 43 13 23 1006.4 1004.0 0.0
18/04:30pm 26.0 20.2 4.5 25 11.1 WNW 24 37 13 20 1006.8 1004.3 0.0
18/04:00pm 26.6 21.0 5.5 26 11.2 W 24 35 13 19 1006.7 1004.2 0.0
18/03:30pm 26.0 19.9 5.0 26 11.0 WNW 26 39 14 21 1006.6 1004.1 0.0
18/03:00pm 26.4 21.6 5.4 26 11.1 W 20 35 11 19 1006.4 1004.0 0.0
18/02:30pm 25.9 20.4 3.8 24 11.3 WNW 22 37 12 20 1006.3 1003.9 0.0
18/02:00pm 26.1 21.2 5.1 26 11.0 WNW 20 33 11 18 1006.6 1004.1 0.0
18/01:30pm 25.8 21.5 5.4 27 10.7 WNW 17 28 9 15 1007.0 1004.5 0.0
18/01:00pm 24.2 20.8 7.8 35 8.9 N 15 22 8 12 1007.3 1004.8 0.0
18/12:30pm 23.2 19.4 6.0 33 9.0 NNW 15 26 8 14 1007.7 1005.3 0.0
18/12:00pm 22.8 19.5 6.6 35 8.6 NNW 13 26 7 14 1008.1 1005.7 0.0
18/11:30am 22.2 19.8 10.0 46 6.8 N 13 24 7 13 1008.6 1006.1 0.0
18/11:00am 20.5 19.1 8.8 47 6.4 NW 6 17 3 9 1009.1 1006.7 0.0
18/10:30am 20.5 18.9 8.8 47 6.3 WNW 7 15 4 8 1009.3 1006.9 0.0
18/10:00am 18.9 17.9 10.2 57 4.8 N 6 13 3 7 1009.7 1007.3 0.0
18/09:30am 17.1 15.4 10.0 63 3.9 WSW 9 13 5 7 1010.1 1007.7 0.0
18/09:00am 16.9 15.7 9.6 62 3.9 ENE 6 11 3 6 1010.5 1008.1 0.0
18/08:30am 15.6 14.4 10.2 70 2.9 NNW 7 13 4 7 1010.7 1008.3 0.0
18/08:00am 15.1 14.9 10.3 73 2.6 NNW 2 7 1 4 1010.7 1008.3 0.0
18/07:30am 14.6 13.6 10.2 75 2.4 NNE 6 9 3 5 1010.8 1008.4 0.0
18/07:00am 14.0 12.9 10.0 77 2.1 NNW 6 9 3 5 1010.5 1008.1 0.0
18/06:30am 13.8 13.1 10.0 78 2.0 NNE 4 7 2 4 1010.3 1007.8 0.0
18/06:00am 13.5 13.5 9.9 79 1.9 CALM 0 0 0 0 1010.1 1007.7 0.0
18/05:30am 13.5 13.4 9.6 77 2.1 CALM 0 0 0 0 1009.9 1007.5 0.0
18/05:00am 13.5 13.5 9.7 78 2.0 CALM 0 0 0 0 1009.8 1007.4 0.0
18/04:30am 13.5 12.3 9.6 77 2.1 NE 6 7 3 4 1009.8 1007.4 0.0
18/04:00am 13.5 12.3 9.6 77 2.1 ENE 6 9 3 5 1009.6 1007.2 0.0
18/03:30am 13.4 11.9 9.3 76 2.2 E 7 9 4 5 1009.6 1007.2 0.0
18/03:00am 13.5 12.1 9.4 76 2.2 ENE 7 11 4 6 1009.8 1007.4 0.0
18/02:30am 13.5 12.2 9.2 75 2.3 ENE 6 11 3 6 1010.4 1008.0 0.0
18/02:00am 13.5 11.3 9.2 75 2.3 ENE 11 17 6 9 1010.5 1008.1 0.0
18/01:30am 13.6 11.3 8.9 73 2.4 NE 11 19 6 10 1010.5 1008.1 0.0
18/01:00am 13.8 11.5 9.0 73 2.5 NE 11 17 6 9 1010.8 1008.4 0.0
18/12:30am 13.9 12.0 9.1 73 2.5 ENE 9 13 5 7 1011.0 1008.6 0.0
18/12:00am 14.0 13.1 9.2 73 2.5 E 4 7 2 4 1011.5 1009.1 0.0
 
Date/Time
EDT
Temp
°C
App
Temp
°C
Dew
Point
Rel
Hum
%
Delta-T
°C
Wind Press
QNH
hPa
Press
MSL
hPa
Rain
since 9 am
mm
Dir
 
Spd
km/h
Gust
km/h
Spd
kts
Gust
kts
17/11:30pm 13.9 12.0 9.1 73 2.5 E 9 13 5 7 1011.5 1009.1 0.0
17/11:00pm 13.8 11.9 9.0 73 2.5 ENE 9 13 5 7 1011.7 1009.3 0.0
17/10:30pm 13.9 12.0 9.1 73 2.5 E 9 15 5 8 1011.6 1009.2 0.0
17/10:00pm 13.9 12.0 9.1 73 2.5 ENE 9 13 5 7 1011.4 1009.0 0.0
17/09:30pm 13.9 11.2 9.1 73 2.5 E 13 20 7 11 1010.7 1008.3 0.0
17/09:00pm 14.2 11.9 9.0 71 2.7 ESE 11 19 6 10 1009.9 1007.5 0.0
17/08:30pm 15.1 11.3 9.2 68 3.1 E 19 28 10 15 1009.2 1006.8 0.0
17/08:00pm 16.7 13.0 9.6 63 3.8 ENE 19 35 10 19 1008.6 1006.1 0.0
17/07:30pm 18.1 12.7 9.5 57 4.7 ENE 28 41 15 22 1007.7 1005.3 0.0
17/07:00pm 20.1 15.9 9.9 52 5.6 NE 22 35 12 19 1007.1 1004.6 0.0
17/06:30pm 22.5 18.6 9.3 43 7.3 NNE 20 32 11 17 1006.6 1004.1 0.0
17/06:00pm 25.2 20.6 -0.8 18 12.2 NNW 13 22 7 12 1006.0 1003.6 0.0
17/05:30pm 25.1 19.9 -0.1 19 11.9 N 17 24 9 13 1005.8 1003.4 0.0
17/05:00pm 25.3 20.1 0.0 19 12.1 N 17 28 9 15 1005.8 1003.4 0.0
17/04:30pm 25.2 20.1 0.7 20 11.8 N 17 26 9 14 1005.9 1003.5 0.0
17/04:00pm 25.1 20.4 0.6 20 11.8 N 15 30 8 16 1005.9 1003.5 0.0
17/03:30pm 25.2 20.9 1.3 21 11.6 NE 13 22 7 12 1005.9 1003.5 0.0
17/03:00pm 24.5 19.3 0.1 20 11.6 N 17 28 9 15 1006.1 1003.7 0.0
17/02:30pm 24.4 19.4 1.3 22 11.2 NNE 17 26 9 14 1006.2 1003.8 0.0
17/02:00pm 24.3 20.6 2.5 24 10.8 NNE 11 20 6 11 1006.1 1003.7 0.0
17/01:30pm 23.2 19.1 2.1 25 10.3 NNE 13 20 7 11 1006.3 1003.9 0.0
17/01:00pm 22.7 18.1 1.7 25 10.1 N 15 26 8 14 1006.4 1004.0 0.0
17/12:30pm 22.3 18.8 1.3 25 10.0 N 9 20 5 11 1006.4 1004.0 0.0
17/12:00pm 22.0 17.8 1.6 26 9.8 N 13 26 7 14 1006.6 1004.1 0.0
17/11:30am 20.9 17.2 2.2 29 9.0 N 11 22 6 12 1006.8 1004.3 0.0
17/11:00am 20.4 17.1 2.3 30 8.7 NNW 9 20 5 11 1006.7 1004.2 0.0
17/10:30am 19.3 16.6 2.6 33 8.0 WNW 6 11 3 6 1006.8 1004.3 0.0
17/10:00am 19.1 15.6 3.7 36 7.5 N 11 19 6 10 1006.7 1004.2 0.0
17/09:30am 18.1 15.0 3.6 38 7.0 NNE 9 19 5 10 1006.8 1004.3 0.0
17/09:00am 17.6 14.6 3.9 40 6.7 NNW 9 13 5 7 1006.6 1004.1 0.6
17/08:30am 17.1 14.4 5.7 47 5.7 N 9 15 5 8 1006.2 1003.8 0.6
17/08:00am 16.6 13.3 6.4 51 5.2 N 13 19 7 10 1005.9 1003.5 0.6
17/07:30am 15.7 11.9 5.9 52 4.9 N 15 20 8 11 1005.2 1002.7 0.6
17/07:00am 16.0 12.3 4.7 47 5.5 NE 13 19 7 10 1004.8 1002.3 0.6
17/06:30am 16.3 11.4 2.3 39 6.5 N 17 26 9 14 1003.9 1001.4 0.6
17/06:00am 16.0 12.6 2.1 39 6.4 NNW 9 13 5 7 1003.2 1000.7 0.6
17/05:30am 15.9 12.8 3.4 43 5.9 NNW 9 13 5 7 1002.4 999.9 0.6
17/05:00am 15.7 13.3 5.3 50 5.1 NNW 7 9 4 5 1001.9 999.4 0.6
17/04:30am 17.5 15.0 4.8 43 6.3 W 7 11 4 6 1001.4 998.9 0.6
17/04:00am 19.5 15.1 4.8 38 7.4 NW 17 24 9 13 1000.6 998.1 0.6
17/03:30am 20.8 16.8 4.8 35 8.1 NNW 15 22 8 12 1000.7 998.2 0.6
17/03:00am 21.2 17.9 4.7 34 8.4 NW 11 22 6 12 1000.5 998.0 0.6
17/02:30am 21.3 18.3 4.0 32 8.6 NW 9 13 5 7 1000.5 998.0 0.6
17/02:00am 19.8 17.8 4.3 36 7.7 NW 4 9 2 5 1000.3 997.8 0.6
17/01:30am 22.1 18.9 3.3 29 9.3 WNW 9 15 5 8 1000.4 997.9 0.6
17/01:00am 21.9 20.3 4.5 32 8.8 NW 2 7 1 4 1000.4 997.9 0.6
17/12:30am 23.0 19.9 3.5 28 9.7 N 9 15 5 8 1000.1 997.6 0.6
17/12:00am 24.5 21.3 3.2 25 10.7 NNW 9 20 5 11 1000.3 997.8 0.6
 
Date/Time
EDT
Temp
°C
App
Temp
°C
Dew
Point
Rel
Hum
%
Delta-T
°C
Wind Press
QNH
hPa
Press
MSL
hPa
Rain
since 9 am
mm
Dir
 
Spd
km/h
Gust
km/h
Spd
kts
Gust
kts
16/11:30pm 25.9 22.2 2.6 22 11.7 WNW 11 20 6 11 999.8 997.3 0.6
16/11:00pm 26.6 21.4 2.5 21 12.2 W 19 39 10 21 999.5 996.9 0.6
16/10:30pm 27.4 20.4 1.8 19 12.7 W 28 43 15 23 998.8 996.3 0.6
16/10:01pm 27.9 20.1 1.4 18 13.1 W 32 50 17 27 998.8 996.3 0.6
16/10:00pm 27.9 19.9 1.4 18 13.2 W 33 50 18 27 998.7 996.2 0.6
16/09:46pm 27.9 20.8 1.4 18 13.1 W 28 54 15 29 999.0 996.5 0.6
16/09:30pm 26.6 21.8 2.5 21 12.1 WNW 17 30 9 16 999.1 996.6 0.6
16/09:00pm 25.7 21.5 1.8 21 11.8 NW 13 22 7 12 999.4 996.8 0.6
16/08:30pm 25.8 22.0 1.8 21 11.8 NNW 11 19 6 10 999.2 996.7 0.6
16/08:00pm 26.9 23.2 -0.2 17 13.1 NNW 9 20 5 11 999.4 996.8 0.6
16/07:30pm 28.5 24.5 0.3 16 13.8 NW 11 19 6 10 999.2 996.7 0.6
16/07:00pm 29.2 23.5 -1.0 14 14.6 WNW 19 28 10 15 999.2 996.7 0.6
16/06:30pm 29.8 24.2 -2.6 12 15.2 WNW 17 32 9 17 999.2 996.7 0.6
16/06:00pm 30.1 23.1 -3.6 11 15.7 WNW 24 41 13 22 998.8 996.3 0.6
16/05:49pm 30.1 22.2 -4.8 10 15.8 WNW 28 46 15 25 998.8 996.3 0.6
16/05:30pm 30.5 23.4 -4.5 10 16.0 WNW 24 35 13 19 998.7 996.2 0.6
16/05:07pm 30.7 22.6 -3.1 11 15.8 WNW 30 54 16 29 998.5 996.0 0.6
16/05:00pm 30.8 24.0 -1.9 12 15.7 WNW 24 43 13 23 998.5 996.0 0.6
16/04:31pm 30.7 21.7 -3.1 11 15.8 WNW 35 56 19 30 998.6 996.1 0.6
16/04:30pm 30.9 22.4 -1.8 12 15.7 WNW 33 50 18 27 998.6 996.1 0.6
16/04:02pm 31.3 24.7 4.2 18 14.4 W 28 50 15 27 998.6 996.1 0.6
16/04:00pm 31.4 25.3 6.5 21 13.8 W 28 43 15 23 998.6 996.1 0.6
16/03:30pm 31.2 22.7 3.3 17 14.6 W 37 56 20 30 998.7 996.2 0.6
16/03:00pm 31.6 24.2 5.2 19 14.4 W 33 56 18 30 998.7 996.2 0.6
16/02:30pm 31.5 25.8 8.5 24 13.1 WNW 28 54 15 29 998.4 995.9 0.6
16/02:00pm 31.4 26.0 9.6 26 12.7 WNW 28 52 15 28 998.3 995.8 0.6
16/01:58pm 31.2 26.5 9.4 26 12.6 WNW 24 46 13 25 998.3 995.8 0.6
16/01:30pm 30.3 28.1 12.2 33 10.9 NNW 15 32 8 17 998.9 996.4 0.6
16/01:00pm 27.8 26.5 13.7 42 8.6 N 13 22 7 12 999.7 997.1 0.6
16/12:30pm 25.9 25.9 15.3 52 6.6 N 9 17 5 9 1000.7 998.2 0.6

Other Formats:

Comma delimited format used in spreadsheet applications
http://www.bom.gov.au/fwo/IDN60801/IDN60801.94925.axf

JavaScript Object Notation format (JSON) in row-major order
http://www.bom.gov.au/fwo/IDN60801/IDN60801.94925.json